sensor_id;sensor_type;location;lat;lon;timestamp;P1;P2;P0
74880;PMS5003;63427;49.654;6.596;2023-08-12T00:00:39;14;14;
74880;PMS5003;63427;49.654;6.596;2023-08-12T00:03:05;15;14;
74880;PMS5003;63427;49.654;6.596;2023-08-12T00:05:30;14;14;
74880;PMS5003;63427;49.654;6.596;2023-08-12T00:07:56;14;13;
74880;PMS5003;63427;49.654;6.596;2023-08-12T00:10:20;13;12;
74880;PMS5003;63427;49.654;6.596;2023-08-12T00:12:45;13;13;
74880;PMS5003;63427;49.654;6.596;2023-08-12T00:15:11;13;12;
74880;PMS5003;63427;49.654;6.596;2023-08-12T00:17:36;12;12;
74880;PMS5003;63427;49.654;6.596;2023-08-12T00:20:01;12;12;
74880;PMS5003;63427;49.654;6.596;2023-08-12T00:22:26;13;12;
74880;PMS5003;63427;49.654;6.596;2023-08-12T00:24:51;13;13;
74880;PMS5003;63427;49.654;6.596;2023-08-12T00:27:17;14;13;
74880;PMS5003;63427;49.654;6.596;2023-08-12T00:29:42;13;13;
74880;PMS5003;63427;49.654;6.596;2023-08-12T00:32:08;14;13;
74880;PMS5003;63427;49.654;6.596;2023-08-12T00:34:33;15;13;
74880;PMS5003;63427;49.654;6.596;2023-08-12T00:36:58;13;13;
74880;PMS5003;63427;49.654;6.596;2023-08-12T00:39:23;12;12;
74880;PMS5003;63427;49.654;6.596;2023-08-12T00:41:48;12;12;
74880;PMS5003;63427;49.654;6.596;2023-08-12T00:44:13;12;12;
74880;PMS5003;63427;49.654;6.596;2023-08-12T00:46:40;15;15;
74880;PMS5003;63427;49.654;6.596;2023-08-12T00:49:04;12;12;
74880;PMS5003;63427;49.654;6.596;2023-08-12T00:51:29;13;13;
74880;PMS5003;63427;49.654;6.596;2023-08-12T00:53:55;12;12;
74880;PMS5003;63427;49.654;6.596;2023-08-12T00:56:20;14;14;
74880;PMS5003;63427;49.654;6.596;2023-08-12T00:58:45;13;13;
74880;PMS5003;63427;49.654;6.596;2023-08-12T01:01:10;15;15;
74880;PMS5003;63427;49.654;6.596;2023-08-12T01:03:35;15;13;
74880;PMS5003;63427;49.654;6.596;2023-08-12T01:06:00;13;13;
74880;PMS5003;63427;49.654;6.596;2023-08-12T01:08:27;13;13;
74880;PMS5003;63427;49.654;6.596;2023-08-12T01:10:52;14;14;
74880;PMS5003;63427;49.654;6.596;2023-08-12T01:13:18;12;12;
74880;PMS5003;63427;49.654;6.596;2023-08-12T01:15:41;14;14;
74880;PMS5003;63427;49.654;6.596;2023-08-12T01:18:06;14;13;
74880;PMS5003;63427;49.654;6.596;2023-08-12T01:20:32;11;11;
74880;PMS5003;63427;49.654;6.596;2023-08-12T01:22:57;13;13;
74880;PMS5003;63427;49.654;6.596;2023-08-12T01:25:21;12;12;
74880;PMS5003;63427;49.654;6.596;2023-08-12T01:27:46;12;12;
74880;PMS5003;63427;49.654;6.596;2023-08-12T01:30:12;10;10;
74880;PMS5003;63427;49.654;6.596;2023-08-12T01:32:38;14;13;
74880;PMS5003;63427;49.654;6.596;2023-08-12T01:35:03;15;15;
74880;PMS5003;63427;49.654;6.596;2023-08-12T01:37:28;14;14;
74880;PMS5003;63427;49.654;6.596;2023-08-12T01:39:52;12;12;
74880;PMS5003;63427;49.654;6.596;2023-08-12T01:42:18;13;13;
74880;PMS5003;63427;49.654;6.596;2023-08-12T01:44:42;15;15;
74880;PMS5003;63427;49.654;6.596;2023-08-12T01:47:08;11;11;
74880;PMS5003;63427;49.654;6.596;2023-08-12T01:49:33;12;12;
74880;PMS5003;63427;49.654;6.596;2023-08-12T01:51:58;14;14;
74880;PMS5003;63427;49.654;6.596;2023-08-12T01:54:23;10;10;
74880;PMS5003;63427;49.654;6.596;2023-08-12T01:56:48;12;12;
74880;PMS5003;63427;49.654;6.596;2023-08-12T01:59:13;11;11;
74880;PMS5003;63427;49.654;6.596;2023-08-12T02:01:38;12;12;
74880;PMS5003;63427;49.654;6.596;2023-08-12T02:04:04;12;11;
74880;PMS5003;63427;49.654;6.596;2023-08-12T02:06:29;11;11;
74880;PMS5003;63427;49.654;6.596;2023-08-12T02:08:54;11;11;
74880;PMS5003;63427;49.654;6.596;2023-08-12T02:11:19;12;12;
74880;PMS5003;63427;49.654;6.596;2023-08-12T02:13:44;12;12;
74880;PMS5003;63427;49.654;6.596;2023-08-12T02:16:09;13;12;
74880;PMS5003;63427;49.654;6.596;2023-08-12T02:18:34;10;10;
74880;PMS5003;63427;49.654;6.596;2023-08-12T02:20:59;11;11;
74880;PMS5003;63427;49.654;6.596;2023-08-12T02:23:24;10;10;
74880;PMS5003;63427;49.654;6.596;2023-08-12T02:25:51;11;11;
74880;PMS5003;63427;49.654;6.596;2023-08-12T02:28:15;10;10;
74880;PMS5003;63427;49.654;6.596;2023-08-12T02:30:41;11;11;
74880;PMS5003;63427;49.654;6.596;2023-08-12T02:33:05;11;11;
74880;PMS5003;63427;49.654;6.596;2023-08-12T02:35:30;11;11;
74880;PMS5003;63427;49.654;6.596;2023-08-12T02:37:55;11;11;
74880;PMS5003;63427;49.654;6.596;2023-08-12T02:40:20;13;11;
74880;PMS5003;63427;49.654;6.596;2023-08-12T02:42:45;11;11;
74880;PMS5003;63427;49.654;6.596;2023-08-12T02:45:11;10;10;
74880;PMS5003;63427;49.654;6.596;2023-08-12T02:47:36;10;10;
74880;PMS5003;63427;49.654;6.596;2023-08-12T02:50:01;9;9;
74880;PMS5003;63427;49.654;6.596;2023-08-12T02:52:26;12;12;
74880;PMS5003;63427;49.654;6.596;2023-08-12T02:54:52;9;9;
74880;PMS5003;63427;49.654;6.596;2023-08-12T02:57:17;11;11;
74880;PMS5003;63427;49.654;6.596;2023-08-12T02:59:42;9;9;
74880;PMS5003;63427;49.654;6.596;2023-08-12T03:02:07;10;10;
74880;PMS5003;63427;49.654;6.596;2023-08-12T03:04:32;14;14;
74880;PMS5003;63427;49.654;6.596;2023-08-12T03:06:57;10;10;
74880;PMS5003;63427;49.654;6.596;2023-08-12T03:09:22;12;12;
74880;PMS5003;63427;49.654;6.596;2023-08-12T03:11:48;13;13;
74880;PMS5003;63427;49.654;6.596;2023-08-12T03:14:13;11;11;
74880;PMS5003;63427;49.654;6.596;2023-08-12T03:16:38;9;9;
74880;PMS5003;63427;49.654;6.596;2023-08-12T03:19:03;9;9;
74880;PMS5003;63427;49.654;6.596;2023-08-12T03:21:28;11;11;
74880;PMS5003;63427;49.654;6.596;2023-08-12T03:23:53;10;10;
74880;PMS5003;63427;49.654;6.596;2023-08-12T03:26:19;11;11;
74880;PMS5003;63427;49.654;6.596;2023-08-12T03:28:44;9;9;
74880;PMS5003;63427;49.654;6.596;2023-08-12T03:31:09;12;11;
74880;PMS5003;63427;49.654;6.596;2023-08-12T03:33:34;11;11;
74880;PMS5003;63427;49.654;6.596;2023-08-12T03:35:59;11;10;
74880;PMS5003;63427;49.654;6.596;2023-08-12T03:38:24;11;11;
74880;PMS5003;63427;49.654;6.596;2023-08-12T03:40:50;10;10;
74880;PMS5003;63427;49.654;6.596;2023-08-12T03:43:15;12;12;
74880;PMS5003;63427;49.654;6.596;2023-08-12T03:45:40;9;9;
74880;PMS5003;63427;49.654;6.596;2023-08-12T03:48:05;11;11;
74880;PMS5003;63427;49.654;6.596;2023-08-12T03:50:32;9;9;
74880;PMS5003;63427;49.654;6.596;2023-08-12T03:52:56;10;10;
74880;PMS5003;63427;49.654;6.596;2023-08-12T03:55:21;10;10;
74880;PMS5003;63427;49.654;6.596;2023-08-12T03:57:46;12;12;
74880;PMS5003;63427;49.654;6.596;2023-08-12T04:00:12;12;11;
74880;PMS5003;63427;49.654;6.596;2023-08-12T04:02:37;11;11;
74880;PMS5003;63427;49.654;6.596;2023-08-12T04:05:02;11;11;
74880;PMS5003;63427;49.654;6.596;2023-08-12T04:07:27;12;12;
74880;PMS5003;63427;49.654;6.596;2023-08-12T04:09:52;10;10;
74880;PMS5003;63427;49.654;6.596;2023-08-12T04:12:17;13;13;
74880;PMS5003;63427;49.654;6.596;2023-08-12T04:14:43;10;10;
74880;PMS5003;63427;49.654;6.596;2023-08-12T04:17:08;9;9;
74880;PMS5003;63427;49.654;6.596;2023-08-12T04:19:33;10;10;
74880;PMS5003;63427;49.654;6.596;2023-08-12T04:21:58;12;12;
74880;PMS5003;63427;49.654;6.596;2023-08-12T04:24:23;10;10;
74880;PMS5003;63427;49.654;6.596;2023-08-12T04:26:48;10;10;
74880;PMS5003;63427;49.654;6.596;2023-08-12T04:29:14;12;12;
74880;PMS5003;63427;49.654;6.596;2023-08-12T04:31:40;11;11;
74880;PMS5003;63427;49.654;6.596;2023-08-12T04:34:05;9;9;
74880;PMS5003;63427;49.654;6.596;2023-08-12T04:36:30;10;10;
74880;PMS5003;63427;49.654;6.596;2023-08-12T04:38:55;12;11;
74880;PMS5003;63427;49.654;6.596;2023-08-12T04:41:20;10;10;
74880;PMS5003;63427;49.654;6.596;2023-08-12T04:43:45;14;13;
74880;PMS5003;63427;49.654;6.596;2023-08-12T04:46:10;12;12;
74880;PMS5003;63427;49.654;6.596;2023-08-12T04:48:36;13;13;
74880;PMS5003;63427;49.654;6.596;2023-08-12T04:51:01;12;12;
74880;PMS5003;63427;49.654;6.596;2023-08-12T04:53:26;13;13;
74880;PMS5003;63427;49.654;6.596;2023-08-12T04:55:51;14;14;
74880;PMS5003;63427;49.654;6.596;2023-08-12T04:58:17;11;11;
74880;PMS5003;63427;49.654;6.596;2023-08-12T05:00:42;15;15;
74880;PMS5003;63427;49.654;6.596;2023-08-12T05:03:07;12;12;
74880;PMS5003;63427;49.654;6.596;2023-08-12T05:05:32;14;14;
74880;PMS5003;63427;49.654;6.596;2023-08-12T05:07:57;11;11;
74880;PMS5003;63427;49.654;6.596;2023-08-12T05:10:22;13;11;
74880;PMS5003;63427;49.654;6.596;2023-08-12T05:12:48;11;11;
74880;PMS5003;63427;49.654;6.596;2023-08-12T05:15:13;12;12;
74880;PMS5003;63427;49.654;6.596;2023-08-12T05:17:38;12;12;
74880;PMS5003;63427;49.654;6.596;2023-08-12T05:20:04;12;11;
74880;PMS5003;63427;49.654;6.596;2023-08-12T05:22:29;15;15;
74880;PMS5003;63427;49.654;6.596;2023-08-12T05:24:56;14;14;
74880;PMS5003;63427;49.654;6.596;2023-08-12T05:27:20;16;16;
74880;PMS5003;63427;49.654;6.596;2023-08-12T05:29:45;13;13;
74880;PMS5003;63427;49.654;6.596;2023-08-12T05:32:10;14;13;
74880;PMS5003;63427;49.654;6.596;2023-08-12T05:34:35;17;16;
74880;PMS5003;63427;49.654;6.596;2023-08-12T05:37:01;13;12;
74880;PMS5003;63427;49.654;6.596;2023-08-12T05:39:26;14;14;
74880;PMS5003;63427;49.654;6.596;2023-08-12T05:41:51;15;15;
74880;PMS5003;63427;49.654;6.596;2023-08-12T05:44:17;14;14;
74880;PMS5003;63427;49.654;6.596;2023-08-12T05:46:42;14;14;
74880;PMS5003;63427;49.654;6.596;2023-08-12T05:49:07;17;16;
74880;PMS5003;63427;49.654;6.596;2023-08-12T05:51:32;12;12;
74880;PMS5003;63427;49.654;6.596;2023-08-12T05:53:57;15;15;
74880;PMS5003;63427;49.654;6.596;2023-08-12T05:56:22;14;14;
74880;PMS5003;63427;49.654;6.596;2023-08-12T05:58:47;13;13;
74880;PMS5003;63427;49.654;6.596;2023-08-12T06:01:12;12;12;
74880;PMS5003;63427;49.654;6.596;2023-08-12T06:03:38;14;14;
74880;PMS5003;63427;49.654;6.596;2023-08-12T06:06:03;14;14;
74880;PMS5003;63427;49.654;6.596;2023-08-12T06:08:28;11;11;
74880;PMS5003;63427;49.654;6.596;2023-08-12T06:10:53;11;11;
74880;PMS5003;63427;49.654;6.596;2023-08-12T06:13:18;12;12;
74880;PMS5003;63427;49.654;6.596;2023-08-12T06:15:43;12;12;
74880;PMS5003;63427;49.654;6.596;2023-08-12T06:18:08;17;17;
74880;PMS5003;63427;49.654;6.596;2023-08-12T06:20:34;13;13;
74880;PMS5003;63427;49.654;6.596;2023-08-12T06:22:58;15;15;
74880;PMS5003;63427;49.654;6.596;2023-08-12T06:25:24;13;13;
74880;PMS5003;63427;49.654;6.596;2023-08-12T06:27:49;15;15;
74880;PMS5003;63427;49.654;6.596;2023-08-12T06:30:14;13;13;
74880;PMS5003;63427;49.654;6.596;2023-08-12T06:32:40;13;13;
74880;PMS5003;63427;49.654;6.596;2023-08-12T06:35:05;14;14;
74880;PMS5003;63427;49.654;6.596;2023-08-12T06:37:30;14;14;
74880;PMS5003;63427;49.654;6.596;2023-08-12T06:39:55;15;15;
74880;PMS5003;63427;49.654;6.596;2023-08-12T06:42:20;14;14;
74880;PMS5003;63427;49.654;6.596;2023-08-12T06:44:45;16;16;
74880;PMS5003;63427;49.654;6.596;2023-08-12T06:47:10;16;16;
74880;PMS5003;63427;49.654;6.596;2023-08-12T06:49:36;17;17;
74880;PMS5003;63427;49.654;6.596;2023-08-12T06:52:01;15;15;
74880;PMS5003;63427;49.654;6.596;2023-08-12T06:54:26;15;15;
74880;PMS5003;63427;49.654;6.596;2023-08-12T06:56:51;13;13;
74880;PMS5003;63427;49.654;6.596;2023-08-12T06:59:16;14;14;
74880;PMS5003;63427;49.654;6.596;2023-08-12T07:01:41;14;14;
74880;PMS5003;63427;49.654;6.596;2023-08-12T07:04:07;16;16;
74880;PMS5003;63427;49.654;6.596;2023-08-12T07:06:32;14;13;
74880;PMS5003;63427;49.654;6.596;2023-08-12T07:08:57;15;14;
74880;PMS5003;63427;49.654;6.596;2023-08-12T07:11:22;15;15;
74880;PMS5003;63427;49.654;6.596;2023-08-12T07:13:47;15;15;
74880;PMS5003;63427;49.654;6.596;2023-08-12T07:16:12;19;19;
74880;PMS5003;63427;49.654;6.596;2023-08-12T07:18:37;15;15;
74880;PMS5003;63427;49.654;6.596;2023-08-12T07:21:03;15;15;
74880;PMS5003;63427;49.654;6.596;2023-08-12T07:23:28;14;14;
74880;PMS5003;63427;49.654;6.596;2023-08-12T07:25:53;13;13;
74880;PMS5003;63427;49.654;6.596;2023-08-12T07:28:18;16;16;
74880;PMS5003;63427;49.654;6.596;2023-08-12T07:30:43;16;16;
74880;PMS5003;63427;49.654;6.596;2023-08-12T07:33:08;13;13;
74880;PMS5003;63427;49.654;6.596;2023-08-12T07:35:34;13;13;
74880;PMS5003;63427;49.654;6.596;2023-08-12T07:37:58;14;14;
74880;PMS5003;63427;49.654;6.596;2023-08-12T07:40:23;15;13;
74880;PMS5003;63427;49.654;6.596;2023-08-12T07:42:48;14;14;
74880;PMS5003;63427;49.654;6.596;2023-08-12T07:45:13;14;14;
74880;PMS5003;63427;49.654;6.596;2023-08-12T07:47:38;14;14;
74880;PMS5003;63427;49.654;6.596;2023-08-12T07:50:05;13;13;
74880;PMS5003;63427;49.654;6.596;2023-08-12T07:52:29;16;15;
74880;PMS5003;63427;49.654;6.596;2023-08-12T07:54:54;14;14;
74880;PMS5003;63427;49.654;6.596;2023-08-12T07:57:19;13;13;
74880;PMS5003;63427;49.654;6.596;2023-08-12T07:59:45;16;16;
74880;PMS5003;63427;49.654;6.596;2023-08-12T08:02:11;14;14;
74880;PMS5003;63427;49.654;6.596;2023-08-12T08:04:37;14;14;
74880;PMS5003;63427;49.654;6.596;2023-08-12T08:07:02;14;14;
74880;PMS5003;63427;49.654;6.596;2023-08-12T08:09:28;14;13;
74880;PMS5003;63427;49.654;6.596;2023-08-12T08:11:54;12;12;
74880;PMS5003;63427;49.654;6.596;2023-08-12T08:14:20;16;16;
74880;PMS5003;63427;49.654;6.596;2023-08-12T08:16:46;13;13;
74880;PMS5003;63427;49.654;6.596;2023-08-12T08:19:11;14;13;
74880;PMS5003;63427;49.654;6.596;2023-08-12T08:21:37;12;12;
74880;PMS5003;63427;49.654;6.596;2023-08-12T08:24:03;13;13;
74880;PMS5003;63427;49.654;6.596;2023-08-12T08:26:29;14;13;
74880;PMS5003;63427;49.654;6.596;2023-08-12T08:28:55;11;11;
74880;PMS5003;63427;49.654;6.596;2023-08-12T08:31:20;13;13;
74880;PMS5003;63427;49.654;6.596;2023-08-12T08:33:46;14;14;
74880;PMS5003;63427;49.654;6.596;2023-08-12T08:36:12;11;11;
74880;PMS5003;63427;49.654;6.596;2023-08-12T08:38:37;12;12;
74880;PMS5003;63427;49.654;6.596;2023-08-12T08:41:03;12;12;
74880;PMS5003;63427;49.654;6.596;2023-08-12T08:43:29;10;10;
74880;PMS5003;63427;49.654;6.596;2023-08-12T08:45:55;15;14;
74880;PMS5003;63427;49.654;6.596;2023-08-12T08:48:21;13;13;
74880;PMS5003;63427;49.654;6.596;2023-08-12T08:50:47;10;10;
74880;PMS5003;63427;49.654;6.596;2023-08-12T08:53:12;12;12;
74880;PMS5003;63427;49.654;6.596;2023-08-12T08:55:39;16;14;
74880;PMS5003;63427;49.654;6.596;2023-08-12T08:58:04;14;13;
74880;PMS5003;63427;49.654;6.596;2023-08-12T09:00:30;14;14;
74880;PMS5003;63427;49.654;6.596;2023-08-12T09:02:56;11;11;
74880;PMS5003;63427;49.654;6.596;2023-08-12T09:05:23;13;13;
74880;PMS5003;63427;49.654;6.596;2023-08-12T09:07:47;10;10;
74880;PMS5003;63427;49.654;6.596;2023-08-12T09:10:13;12;12;
74880;PMS5003;63427;49.654;6.596;2023-08-12T09:12:39;11;11;
74880;PMS5003;63427;49.654;6.596;2023-08-12T09:15:05;13;13;
74880;PMS5003;63427;49.654;6.596;2023-08-12T09:17:30;12;12;
74880;PMS5003;63427;49.654;6.596;2023-08-12T09:19:56;11;11;
74880;PMS5003;63427;49.654;6.596;2023-08-12T09:22:24;13;13;
74880;PMS5003;63427;49.654;6.596;2023-08-12T09:24:49;12;12;
74880;PMS5003;63427;49.654;6.596;2023-08-12T09:27:16;9;9;
74880;PMS5003;63427;49.654;6.596;2023-08-12T09:29:39;12;12;
74880;PMS5003;63427;49.654;6.596;2023-08-12T09:32:05;12;12;
74880;PMS5003;63427;49.654;6.596;2023-08-12T09:34:30;9;9;
74880;PMS5003;63427;49.654;6.596;2023-08-12T09:36:56;10;10;
74880;PMS5003;63427;49.654;6.596;2023-08-12T09:39:22;9;9;
74880;PMS5003;63427;49.654;6.596;2023-08-12T09:41:47;8;8;
74880;PMS5003;63427;49.654;6.596;2023-08-12T09:44:13;7;7;
74880;PMS5003;63427;49.654;6.596;2023-08-12T09:46:39;11;11;
74880;PMS5003;63427;49.654;6.596;2023-08-12T09:49:06;9;9;
74880;PMS5003;63427;49.654;6.596;2023-08-12T09:51:33;9;9;
74880;PMS5003;63427;49.654;6.596;2023-08-12T09:53:56;9;9;
74880;PMS5003;63427;49.654;6.596;2023-08-12T09:56:22;11;10;
74880;PMS5003;63427;49.654;6.596;2023-08-12T09:58:48;11;10;
74880;PMS5003;63427;49.654;6.596;2023-08-12T10:01:13;10;10;
74880;PMS5003;63427;49.654;6.596;2023-08-12T10:03:39;11;11;
74880;PMS5003;63427;49.654;6.596;2023-08-12T10:06:05;10;10;
74880;PMS5003;63427;49.654;6.596;2023-08-12T10:08:31;10;10;
74880;PMS5003;63427;49.654;6.596;2023-08-12T10:10:56;11;11;
74880;PMS5003;63427;49.654;6.596;2023-08-12T10:13:22;11;11;
74880;PMS5003;63427;49.654;6.596;2023-08-12T10:15:48;10;10;
74880;PMS5003;63427;49.654;6.596;2023-08-12T10:18:14;10;10;
74880;PMS5003;63427;49.654;6.596;2023-08-12T10:20:39;9;9;
74880;PMS5003;63427;49.654;6.596;2023-08-12T10:23:05;10;10;
74880;PMS5003;63427;49.654;6.596;2023-08-12T10:25:32;11;11;
74880;PMS5003;63427;49.654;6.596;2023-08-12T10:27:57;13;13;
74880;PMS5003;63427;49.654;6.596;2023-08-12T10:30:22;13;13;
74880;PMS5003;63427;49.654;6.596;2023-08-12T10:32:48;11;11;
74880;PMS5003;63427;49.654;6.596;2023-08-12T10:35:14;11;11;
74880;PMS5003;63427;49.654;6.596;2023-08-12T10:37:39;11;11;
74880;PMS5003;63427;49.654;6.596;2023-08-12T10:40:06;10;10;
74880;PMS5003;63427;49.654;6.596;2023-08-12T10:44:57;11;11;
74880;PMS5003;63427;49.654;6.596;2023-08-12T10:47:23;11;11;
74880;PMS5003;63427;49.654;6.596;2023-08-12T10:49:49;11;11;
74880;PMS5003;63427;49.654;6.596;2023-08-12T10:54:40;10;10;
74880;PMS5003;63427;49.654;6.596;2023-08-12T10:57:06;10;10;
74880;PMS5003;63427;49.654;6.596;2023-08-12T11:04:23;10;9;
74880;PMS5003;63427;49.654;6.596;2023-08-12T11:06:48;9;9;
74880;PMS5003;63427;49.654;6.596;2023-08-12T11:09:14;9;9;
74880;PMS5003;63427;49.654;6.596;2023-08-12T11:11:40;8;8;
74880;PMS5003;63427;49.654;6.596;2023-08-12T11:16:32;6;6;
74880;PMS5003;63427;49.654;6.596;2023-08-12T11:18:57;6;6;
74880;PMS5003;63427;49.654;6.596;2023-08-12T11:21:23;6;6;
74880;PMS5003;63427;49.654;6.596;2023-08-12T11:23:48;6;5;
74880;PMS5003;63427;49.654;6.596;2023-08-12T11:26:13;7;7;
74880;PMS5003;63427;49.654;6.596;2023-08-12T11:28:39;5;5;
74880;PMS5003;63427;49.654;6.596;2023-08-12T11:31:05;5;5;
74880;PMS5003;63427;49.654;6.596;2023-08-12T11:33:30;5;5;
74880;PMS5003;63427;49.654;6.596;2023-08-12T11:35:56;6;6;
74880;PMS5003;63427;49.654;6.596;2023-08-12T11:38:22;4;4;
74880;PMS5003;63427;49.654;6.596;2023-08-12T11:40:47;5;5;
74880;PMS5003;63427;49.654;6.596;2023-08-12T11:43:13;4;4;
74880;PMS5003;63427;49.654;6.596;2023-08-12T11:45:41;4;4;
74880;PMS5003;63427;49.654;6.596;2023-08-12T11:48:04;4;4;
74880;PMS5003;63427;49.654;6.596;2023-08-12T11:50:30;3;3;
74880;PMS5003;63427;49.654;6.596;2023-08-12T11:52:55;4;4;
74880;PMS5003;63427;49.654;6.596;2023-08-12T11:55:21;4;4;
74880;PMS5003;63427;49.654;6.596;2023-08-12T11:57:46;4;3;
74880;PMS5003;63427;49.654;6.596;2023-08-12T12:00:12;4;4;
74880;PMS5003;63427;49.654;6.596;2023-08-12T12:02:38;3;3;
74880;PMS5003;63427;49.654;6.596;2023-08-12T12:05:05;5;5;
74880;PMS5003;63427;49.654;6.596;2023-08-12T12:07:29;3;3;
74880;PMS5003;63427;49.654;6.596;2023-08-12T12:09:54;4;4;
74880;PMS5003;63427;49.654;6.596;2023-08-12T12:12:22;5;5;
74880;PMS5003;63427;49.654;6.596;2023-08-12T12:14:46;4;4;
74880;PMS5003;63427;49.654;6.596;2023-08-12T12:17:11;5;5;
74880;PMS5003;63427;49.654;6.596;2023-08-12T12:19:37;5;4;
74880;PMS5003;63427;49.654;6.596;2023-08-12T12:22:03;5;5;
74880;PMS5003;63427;49.654;6.596;2023-08-12T12:24:28;4;4;
74880;PMS5003;63427;49.654;6.596;2023-08-12T12:26:53;4;4;
74880;PMS5003;63427;49.654;6.596;2023-08-12T12:29:19;6;6;
74880;PMS5003;63427;49.654;6.596;2023-08-12T12:31:44;7;6;
74880;PMS5003;63427;49.654;6.596;2023-08-12T12:34:10;4;4;
74880;PMS5003;63427;49.654;6.596;2023-08-12T12:36:36;4;4;
74880;PMS5003;63427;49.654;6.596;2023-08-12T12:39:01;4;3;
74880;PMS5003;63427;49.654;6.596;2023-08-12T12:41:27;4;4;
74880;PMS5003;63427;49.654;6.596;2023-08-12T12:43:53;6;6;
74880;PMS5003;63427;49.654;6.596;2023-08-12T12:46:18;4;4;
74880;PMS5003;63427;49.654;6.596;2023-08-12T12:48:44;5;5;
74880;PMS5003;63427;49.654;6.596;2023-08-12T12:51:09;4;4;
74880;PMS5003;63427;49.654;6.596;2023-08-12T12:53:35;5;5;
74880;PMS5003;63427;49.654;6.596;2023-08-12T12:56:01;5;5;
74880;PMS5003;63427;49.654;6.596;2023-08-12T12:58:26;5;5;
74880;PMS5003;63427;49.654;6.596;2023-08-12T13:00:52;6;5;
74880;PMS5003;63427;49.654;6.596;2023-08-12T13:03:18;6;6;
74880;PMS5003;63427;49.654;6.596;2023-08-12T13:05:43;6;6;
74880;PMS5003;63427;49.654;6.596;2023-08-12T13:08:09;6;6;
74880;PMS5003;63427;49.654;6.596;2023-08-12T13:10:35;6;6;
74880;PMS5003;63427;49.654;6.596;2023-08-12T13:13:00;6;6;
74880;PMS5003;63427;49.654;6.596;2023-08-12T13:15:26;6;6;
74880;PMS5003;63427;49.654;6.596;2023-08-12T13:17:52;7;7;
74880;PMS5003;63427;49.654;6.596;2023-08-12T13:20:18;6;6;
74880;PMS5003;63427;49.654;6.596;2023-08-12T13:22:43;8;8;
74880;PMS5003;63427;49.654;6.596;2023-08-12T13:25:09;7;7;
74880;PMS5003;63427;49.654;6.596;2023-08-12T13:27:35;6;6;
74880;PMS5003;63427;49.654;6.596;2023-08-12T13:30:00;7;7;
74880;PMS5003;63427;49.654;6.596;2023-08-12T13:32:26;8;8;
74880;PMS5003;63427;49.654;6.596;2023-08-12T13:34:52;7;6;
74880;PMS5003;63427;49.654;6.596;2023-08-12T13:37:18;7;7;
74880;PMS5003;63427;49.654;6.596;2023-08-12T13:39:44;6;6;
74880;PMS5003;63427;49.654;6.596;2023-08-12T13:42:09;7;7;
74880;PMS5003;63427;49.654;6.596;2023-08-12T13:44:35;6;6;
74880;PMS5003;63427;49.654;6.596;2023-08-12T13:47:01;5;5;
74880;PMS5003;63427;49.654;6.596;2023-08-12T13:49:26;6;6;
74880;PMS5003;63427;49.654;6.596;2023-08-12T13:51:52;7;7;
74880;PMS5003;63427;49.654;6.596;2023-08-12T13:54:18;6;6;
74880;PMS5003;63427;49.654;6.596;2023-08-12T13:56:44;8;8;
74880;PMS5003;63427;49.654;6.596;2023-08-12T13:59:09;7;7;
74880;PMS5003;63427;49.654;6.596;2023-08-12T14:01:35;7;6;
74880;PMS5003;63427;49.654;6.596;2023-08-12T14:04:01;5;5;
74880;PMS5003;63427;49.654;6.596;2023-08-12T14:06:27;6;6;
74880;PMS5003;63427;49.654;6.596;2023-08-12T14:08:52;5;5;
74880;PMS5003;63427;49.654;6.596;2023-08-12T14:11:18;6;6;
74880;PMS5003;63427;49.654;6.596;2023-08-12T14:13:44;6;6;
74880;PMS5003;63427;49.654;6.596;2023-08-12T14:16:10;6;5;
74880;PMS5003;63427;49.654;6.596;2023-08-12T14:18:35;8;8;
74880;PMS5003;63427;49.654;6.596;2023-08-12T14:21:01;7;7;
74880;PMS5003;63427;49.654;6.596;2023-08-12T14:23:27;7;7;
74880;PMS5003;63427;49.654;6.596;2023-08-12T14:25:53;7;7;
74880;PMS5003;63427;49.654;6.596;2023-08-12T14:28:18;7;7;
74880;PMS5003;63427;49.654;6.596;2023-08-12T14:30:44;7;7;
74880;PMS5003;63427;49.654;6.596;2023-08-12T14:33:10;7;7;
74880;PMS5003;63427;49.654;6.596;2023-08-12T14:35:36;6;6;
74880;PMS5003;63427;49.654;6.596;2023-08-12T14:38:02;7;7;
74880;PMS5003;63427;49.654;6.596;2023-08-12T14:40:27;7;7;
74880;PMS5003;63427;49.654;6.596;2023-08-12T14:42:53;6;6;
74880;PMS5003;63427;49.654;6.596;2023-08-12T14:45:19;7;7;
74880;PMS5003;63427;49.654;6.596;2023-08-12T14:47:44;7;7;
74880;PMS5003;63427;49.654;6.596;2023-08-12T14:50:10;10;10;
74880;PMS5003;63427;49.654;6.596;2023-08-12T14:52:36;6;6;
74880;PMS5003;63427;49.654;6.596;2023-08-12T14:55:02;6;6;
74880;PMS5003;63427;49.654;6.596;2023-08-12T14:57:27;7;7;
74880;PMS5003;63427;49.654;6.596;2023-08-12T14:59:53;8;8;
74880;PMS5003;63427;49.654;6.596;2023-08-12T15:02:20;9;9;
74880;PMS5003;63427;49.654;6.596;2023-08-12T15:04:45;8;8;
74880;PMS5003;63427;49.654;6.596;2023-08-12T15:07:10;9;9;
74880;PMS5003;63427;49.654;6.596;2023-08-12T15:09:36;8;8;
74880;PMS5003;63427;49.654;6.596;2023-08-12T15:12:02;7;7;
74880;PMS5003;63427;49.654;6.596;2023-08-12T15:14:28;6;6;
74880;PMS5003;63427;49.654;6.596;2023-08-12T15:16:54;7;7;
74880;PMS5003;63427;49.654;6.596;2023-08-12T15:19:19;7;7;
74880;PMS5003;63427;49.654;6.596;2023-08-12T15:21:45;8;7;
74880;PMS5003;63427;49.654;6.596;2023-08-12T15:24:11;8;8;
74880;PMS5003;63427;49.654;6.596;2023-08-12T15:26:37;7;7;
74880;PMS5003;63427;49.654;6.596;2023-08-12T15:29:02;8;8;
74880;PMS5003;63427;49.654;6.596;2023-08-12T15:31:28;6;6;
74880;PMS5003;63427;49.654;6.596;2023-08-12T15:33:54;5;4;
74880;PMS5003;63427;49.654;6.596;2023-08-12T15:36:20;5;5;
74880;PMS5003;63427;49.654;6.596;2023-08-12T15:38:46;6;6;
74880;PMS5003;63427;49.654;6.596;2023-08-12T15:41:12;6;6;
74880;PMS5003;63427;49.654;6.596;2023-08-12T15:43:37;5;5;
74880;PMS5003;63427;49.654;6.596;2023-08-12T15:46:03;5;5;
74880;PMS5003;63427;49.654;6.596;2023-08-12T15:48:28;5;5;
74880;PMS5003;63427;49.654;6.596;2023-08-12T15:50:54;4;4;
74880;PMS5003;63427;49.654;6.596;2023-08-12T15:53:20;7;7;
74880;PMS5003;63427;49.654;6.596;2023-08-12T15:55:46;7;7;
74880;PMS5003;63427;49.654;6.596;2023-08-12T15:58:11;6;6;
74880;PMS5003;63427;49.654;6.596;2023-08-12T16:00:37;5;5;
74880;PMS5003;63427;49.654;6.596;2023-08-12T16:03:03;6;6;
74880;PMS5003;63427;49.654;6.596;2023-08-12T16:05:29;7;6;
74880;PMS5003;63427;49.654;6.596;2023-08-12T16:07:54;4;4;
74880;PMS5003;63427;49.654;6.596;2023-08-12T16:10:20;4;4;
74880;PMS5003;63427;49.654;6.596;2023-08-12T16:12:46;4;4;
74880;PMS5003;63427;49.654;6.596;2023-08-12T16:15:11;5;5;
74880;PMS5003;63427;49.654;6.596;2023-08-12T16:17:37;4;4;
74880;PMS5003;63427;49.654;6.596;2023-08-12T16:20:03;4;4;
74880;PMS5003;63427;49.654;6.596;2023-08-12T16:22:29;5;5;
74880;PMS5003;63427;49.654;6.596;2023-08-12T16:24:54;6;6;
74880;PMS5003;63427;49.654;6.596;2023-08-12T16:27:20;5;5;
74880;PMS5003;63427;49.654;6.596;2023-08-12T16:29:46;5;5;